Time;durP1;ratioP1;P1;durP2;ratioP2;P2;SDS_P1;SDS_P2;PMS_P1;PMS_P2;Temp;Humidity;BMP_temperature;BMP_pressure;BME280_temperature;BME280_humidity;BME280_pressure;Samples;Min_cycle;Max_cycle;Signal;HPM_P1;HPM_P2
2023/06/06 00:00:13;;;;;;;6.50;5.95;;;15.60;99.90;;;;;;5051875;28;20019;-76
2023/06/06 00:02:46;;;;;;;5.72;5.22;;;15.70;99.90;;;;;;5052131;28;20028;-76
2023/06/06 00:05:15;;;;;;;5.47;4.97;;;15.70;99.90;;;;;;5051718;28;20025;-76
2023/06/06 00:07:43;;;;;;;4.93;4.53;;;15.70;99.90;;;;;;5050281;28;20033;-76
2023/06/06 00:10:10;;;;;;;4.63;4.22;;;15.70;99.90;;;;;;5040452;28;20547;-77
2023/06/06 00:12:36;;;;;;;4.03;3.72;;;15.70;99.90;;;;;;5051882;28;20393;-75
2023/06/06 00:15:01;;;;;;;3.20;2.92;;;15.70;99.90;;;;;;5052318;28;20101;-76
2023/06/06 00:17:27;;;;;;;3.40;3.17;;;15.70;99.90;;;;;;5051445;28;20087;-77
2023/06/06 00:19:53;;;;;;;3.05;2.85;;;15.70;99.90;;;;;;5051580;28;20432;-76
2023/06/06 00:22:22;;;;;;;2.80;2.63;;;15.70;99.90;;;;;;5051113;28;20112;-75
2023/06/06 00:24:52;;;;;;;2.90;2.70;;;15.60;99.90;;;;;;5055362;28;20020;-76
2023/06/06 00:27:18;;;;;;;3.15;2.95;;;15.50;99.90;;;;;;5073096;28;20076;-76
2023/06/06 00:29:44;;;;;;;2.92;2.72;;;15.40;99.90;;;;;;5069872;28;20190;-76
2023/06/06 00:32:10;;;;;;;2.92;2.70;;;15.40;99.90;;;;;;5050266;28;20500;-77
2023/06/06 00:34:35;;;;;;;2.95;2.75;;;15.30;99.90;;;;;;5051412;28;20385;-77
2023/06/06 00:37:01;;;;;;;2.50;2.30;;;15.20;99.90;;;;;;5052463;28;20051;-76
2023/06/06 00:39:27;;;;;;;2.10;2.00;;;15.20;99.90;;;;;;5044308;28;20086;-76
2023/06/06 00:41:53;;;;;;;2.65;2.47;;;15.30;99.90;;;;;;5045633;28;20081;-76
2023/06/06 00:44:20;;;;;;;4.63;4.22;;;15.30;99.90;;;;;;5050446;28;20342;-74
2023/06/06 00:46:46;;;;;;;4.45;4.13;;;15.40;99.90;;;;;;5051980;28;20086;-75
2023/06/06 00:49:14;;;;;;;4.53;4.13;;;15.40;99.90;;;;;;5051091;28;20195;-77
2023/06/06 00:51:41;;;;;;;4.95;4.55;;;15.40;99.90;;;;;;5051047;28;20338;-76
2023/06/06 00:54:12;;;;;;;3.85;3.55;;;15.40;99.90;;;;;;5048743;28;20024;-76
2023/06/06 00:56:38;;;;;;;4.00;3.70;;;15.40;99.90;;;;;;5051037;28;20021;-76
2023/06/06 00:59:05;;;;;;;4.60;4.20;;;15.40;99.90;;;;;;5051360;28;20359;-76
2023/06/06 01:01:33;;;;;;;4.60;4.25;;;15.40;99.90;;;;;;5049389;28;20025;-77
2023/06/06 01:04:02;;;;;;;4.75;4.30;;;15.30;99.90;;;;;;5050987;28;20091;-77
2023/06/06 01:06:37;;;;;;;5.13;4.70;;;15.30;99.90;;;;;;5050749;28;20032;-77
2023/06/06 01:09:05;;;;;;;5.70;5.20;;;15.30;99.90;;;;;;5050839;28;20486;-77
2023/06/06 01:12:03;;;;;;;5.00;4.60;;;15.40;99.90;;;;;;5050910;28;20079;-77
2023/06/06 01:14:56;;;;;;;4.50;4.10;;;15.40;99.90;;;;;;5031385;28;20095;-77
2023/06/06 01:17:25;;;;;;;3.70;3.40;;;15.40;99.90;;;;;;5032648;28;20376;-75
2023/06/06 01:19:54;;;;;;;3.00;2.80;;;15.40;99.90;;;;;;5032914;28;20021;-77
2023/06/06 01:22:22;;;;;;;2.80;2.60;;;15.50;99.90;;;;;;5049347;28;20021;-76
2023/06/06 01:24:52;;;;;;;3.20;3.00;;;15.50;99.90;;;;;;5050236;28;20017;-76
2023/06/06 01:27:18;;;;;;;3.10;2.90;;;15.50;99.90;;;;;;5032946;28;20018;-76
2023/06/06 01:29:44;;;;;;;3.38;3.15;;;15.60;99.90;;;;;;5050533;28;20100;-76
2023/06/06 01:32:21;;;;;;;3.70;3.40;;;15.60;99.90;;;;;;5037005;28;20083;-77
2023/06/06 01:35:15;;;;;;;3.17;2.97;;;15.60;99.90;;;;;;5050498;28;20036;-76
2023/06/06 01:37:48;;;;;;;2.97;2.72;;;15.60;99.90;;;;;;5047362;28;20041;-76
2023/06/06 01:40:18;;;;;;;2.20;2.10;;;15.70;99.90;;;;;;5062701;28;20080;-75
2023/06/06 01:42:47;;;;;;;2.40;2.30;;;15.70;99.90;;;;;;5072402;28;20016;-74
2023/06/06 01:45:16;;;;;;;2.13;2.03;;;15.80;99.90;;;;;;5072383;28;20005;-75
2023/06/06 01:47:43;;;;;;;2.40;2.17;;;15.80;99.90;;;;;;5066411;28;20572;-77
2023/06/06 01:50:10;;;;;;;2.05;1.95;;;15.90;99.90;;;;;;5056775;28;20080;-78
2023/06/06 01:52:39;;;;;;;4.03;3.67;;;16.00;99.90;;;;;;5060511;28;20024;-79
2023/06/06 01:55:07;;;;;;;3.42;3.20;;;15.90;99.90;;;;;;5054189;28;20470;-78
2023/06/06 01:57:33;;;;;;;2.83;2.63;;;15.90;99.90;;;;;;5041494;28;20025;-78
2023/06/06 01:59:59;;;;;;;1.90;1.80;;;15.90;99.90;;;;;;5058545;28;20021;-77
2023/06/06 02:02:26;;;;;;;2.67;2.47;;;16.00;99.90;;;;;;5057962;28;20467;-76
2023/06/06 02:04:52;;;;;;;2.30;2.20;;;16.00;99.90;;;;;;5058805;28;20374;-78
2023/06/06 02:07:17;;;;;;;2.03;1.92;;;16.00;99.90;;;;;;5052010;28;20026;-75
2023/06/06 02:09:43;;;;;;;2.80;2.60;;;16.10;99.90;;;;;;5052860;28;20075;-75
2023/06/06 02:12:09;;;;;;;2.80;2.60;;;16.10;99.90;;;;;;5059775;28;20032;-78
2023/06/06 02:14:35;;;;;;;3.95;2.70;;;16.00;99.90;;;;;;5056067;28;20025;-78
2023/06/06 02:17:01;;;;;;;3.00;2.80;;;16.00;99.90;;;;;;5058292;28;20104;-76
2023/06/06 02:19:27;;;;;;;2.50;2.30;;;16.00;99.90;;;;;;5056451;28;20102;-77
2023/06/06 02:21:53;;;;;;;2.08;1.98;;;16.00;99.90;;;;;;5058608;28;20561;-79
2023/06/06 02:24:18;;;;;;;2.28;2.08;;;16.00;99.90;;;;;;5056445;28;20037;-76
2023/06/06 02:26:44;;;;;;;2.40;2.20;;;15.90;99.90;;;;;;5057760;28;20125;-78
2023/06/06 02:29:10;;;;;;;2.70;2.50;;;15.90;99.90;;;;;;5040013;28;20028;-79
2023/06/06 02:31:36;;;;;;;2.45;2.25;;;15.90;99.90;;;;;;5058290;28;20040;-77
2023/06/06 02:34:02;;;;;;;2.63;2.42;;;15.90;99.90;;;;;;5055380;28;20054;-78
2023/06/06 02:36:29;;;;;;;2.83;2.63;;;15.90;99.90;;;;;;5057824;28;20060;-77
2023/06/06 02:38:56;;;;;;;2.83;2.63;;;15.90;99.90;;;;;;5057188;28;20049;-77
2023/06/06 02:41:23;;;;;;;2.35;2.25;;;15.80;99.90;;;;;;5052677;28;20440;-77
2023/06/06 02:43:49;;;;;;;2.60;2.40;;;15.80;99.90;;;;;;5065209;28;20016;-78
2023/06/06 02:46:15;;;;;;;2.80;2.60;;;15.80;99.90;;;;;;5076047;28;20045;-78
2023/06/06 02:48:45;;;;;;;2.53;2.33;;;15.80;99.90;;;;;;5067087;28;20036;-74
2023/06/06 02:51:11;;;;;;;2.45;2.35;;;15.80;99.90;;;;;;5054309;28;20132;-75
2023/06/06 02:53:40;;;;;;;2.45;2.25;;;15.90;99.90;;;;;;5072947;28;20033;-74
2023/06/06 02:56:07;;;;;;;3.08;2.88;;;15.90;99.90;;;;;;5062080;28;20141;-78
2023/06/06 02:58:33;;;;;;;3.05;2.85;;;15.90;99.90;;;;;;5059018;28;20047;-75
2023/06/06 03:01:03;;;;;;;3.22;3.03;;;15.80;99.90;;;;;;5076319;28;20044;-75
2023/06/06 03:03:29;;;;;;;8.27;6.40;;;15.80;99.90;;;;;;5060473;28;20021;-74
2023/06/06 03:05:56;;;;;;;5.35;4.85;;;15.70;99.90;;;;;;5054106;28;20063;-75
2023/06/06 03:08:22;;;;;;;5.28;4.57;;;15.60;99.90;;;;;;5055281;28;20507;-75
2023/06/06 03:10:49;;;;;;;4.47;4.07;;;15.50;99.90;;;;;;5055505;28;20066;-75
2023/06/06 03:13:14;;;;;;;4.50;4.10;;;15.50;99.90;;;;;;5051834;28;20430;-75
2023/06/06 03:15:41;;;;;;;4.03;3.28;;;15.50;99.90;;;;;;5052908;28;20039;-74
2023/06/06 03:18:09;;;;;;;4.40;4.00;;;15.40;99.90;;;;;;5053616;28;20037;-74
2023/06/06 03:20:36;;;;;;;5.00;4.15;;;15.40;99.90;;;;;;5053952;28;20024;-72
2023/06/06 03:23:02;;;;;;;5.57;4.85;;;15.30;99.90;;;;;;5052929;28;20338;-75
2023/06/06 03:25:28;;;;;;;4.40;4.00;;;15.30;99.90;;;;;;5052366;28;20021;-75
2023/06/06 03:27:54;;;;;;;4.53;4.13;;;15.30;99.90;;;;;;5052169;28;20043;-75
2023/06/06 03:30:20;;;;;;;3.85;3.50;;;15.20;99.90;;;;;;5052043;28;20465;-76
2023/06/06 03:32:45;;;;;;;4.03;3.70;;;15.20;99.90;;;;;;5051491;28;20029;-75
2023/06/06 03:35:14;;;;;;;4.50;3.00;;;15.20;99.90;;;;;;5051573;28;20382;-74
2023/06/06 03:37:40;;;;;;;4.03;3.50;;;15.20;99.90;;;;;;5053469;28;20096;-75
2023/06/06 03:40:06;;;;;;;4.63;3.80;;;15.20;99.90;;;;;;5034167;28;20064;-76
2023/06/06 03:42:32;;;;;;;3.97;3.55;;;15.20;99.90;;;;;;5052471;28;20047;-74
2023/06/06 03:44:58;;;;;;;2.67;2.47;;;15.20;99.90;;;;;;5051956;28;20200;-75
2023/06/06 03:47:23;;;;;;;3.10;2.80;;;15.10;99.90;;;;;;5052768;28;20093;-77
2023/06/06 03:49:49;;;;;;;2.85;2.55;;;15.20;99.90;;;;;;5034806;28;20033;-73
2023/06/06 03:52:15;;;;;;;3.88;3.58;;;15.20;99.90;;;;;;5052991;28;20037;-75
2023/06/06 03:54:41;;;;;;;5.95;5.35;;;15.20;99.90;;;;;;5051954;28;20029;-75
2023/06/06 03:57:11;;;;;;;7.38;4.50;;;15.20;99.90;;;;;;5034790;28;20032;-75
2023/06/06 03:59:36;;;;;;;5.50;5.00;;;15.10;99.90;;;;;;5052985;28;20105;-75
2023/06/06 04:02:02;;;;;;;4.82;4.43;;;15.10;99.90;;;;;;5052398;28;20032;-75
2023/06/06 04:04:30;;;;;;;4.68;3.80;;;15.10;99.90;;;;;;5054697;28;20029;-75
2023/06/06 04:06:57;;;;;;;5.70;4.30;;;15.10;99.90;;;;;;5053030;28;20028;-75
2023/06/06 04:09:23;;;;;;;4.40;3.88;;;15.10;99.90;;;;;;5052770;28;20536;-76
2023/06/06 04:11:49;;;;;;;3.25;2.95;;;15.10;99.90;;;;;;5052523;28;20033;-77
2023/06/06 04:14:15;;;;;;;3.83;3.42;;;15.10;99.90;;;;;;5052153;28;20032;-76
2023/06/06 04:16:41;;;;;;;3.83;3.45;;;15.10;99.90;;;;;;5054439;28;20033;-75
2023/06/06 04:19:07;;;;;;;4.30;3.85;;;15.10;99.90;;;;;;5053172;28;20140;-75
2023/06/06 04:21:33;;;;;;;3.88;3.38;;;15.10;99.90;;;;;;5059090;28;20021;-74
2023/06/06 04:24:00;;;;;;;5.07;3.85;;;15.10;99.90;;;;;;5060742;28;20028;-75
2023/06/06 04:26:31;;;;;;;4.20;3.80;;;15.10;99.90;;;;;;5054599;28;20040;-76
2023/06/06 04:28:59;;;;;;;5.53;3.83;;;15.00;99.90;;;;;;5052364;28;20025;-77
2023/06/06 04:31:29;;;;;;;4.43;4.03;;;14.90;99.90;;;;;;5064026;28;20033;-78
2023/06/06 04:33:55;;;;;;;4.10;3.70;;;14.80;99.90;;;;;;5044958;28;20033;-79
2023/06/06 04:36:23;;;;;;;4.55;3.85;;;14.90;99.90;;;;;;5066494;28;20024;-78
2023/06/06 04:38:50;;;;;;;3.63;3.20;;;14.90;99.90;;;;;;5076295;28;20083;-78
2023/06/06 04:41:20;;;;;;;3.90;3.38;;;15.00;99.90;;;;;;5086639;28;20020;-78
2023/06/06 04:43:49;;;;;;;4.35;3.38;;;15.10;99.70;;;;;;5075201;28;20032;-78
2023/06/06 04:46:21;;;;;;;3.63;3.33;;;15.10;99.50;;;;;;5055748;28;20021;-79
2023/06/06 04:48:53;;;;;;;;;;;15.10;98.90;;;;;;5057071;28;20083;-78
2023/06/06 04:51:29;;;;;;;3.65;3.08;;;15.10;98.80;;;;;;5058115;28;19905;-78
2023/06/06 04:54:06;;;;;;;5.30;2.95;;;15.10;98.70;;;;;;5055992;28;20024;-78
2023/06/06 04:56:32;;;;;;;3.45;2.92;;;15.10;98.50;;;;;;5038937;28;20106;-79
2023/06/06 04:59:09;;;;;;;4.22;3.83;;;15.00;98.40;;;;;;5054878;28;20116;-78
2023/06/06 05:01:36;;;;;;;6.75;3.75;;;15.00;98.30;;;;;;5020080;28;20033;-78
2023/06/06 05:04:03;;;;;;;4.28;3.83;;;14.90;98.30;;;;;;5055665;28;20029;-78
2023/06/06 05:06:31;;;;;;;5.95;2.70;;;14.90;98.70;;;;;;5046749;28;20025;-78
2023/06/06 05:08:59;;;;;;;3.75;3.45;;;14.90;98.80;;;;;;5044587;28;20107;-78
2023/06/06 05:11:25;;;;;;;4.53;3.75;;;15.00;98.30;;;;;;5056275;28;20155;-78
2023/06/06 05:13:51;;;;;;;4.10;3.65;;;15.10;98.10;;;;;;5037121;28;20128;-78
2023/06/06 05:16:16;;;;;;;4.30;3.75;;;15.10;98.30;;;;;;5053456;28;20048;-78
2023/06/06 05:18:42;;;;;;;5.07;4.50;;;15.10;98.00;;;;;;5054598;28;20047;-77
2023/06/06 05:21:08;;;;;;;4.43;3.80;;;15.10;97.90;;;;;;5055102;28;20026;-78
2023/06/06 05:23:34;;;;;;;3.65;3.30;;;15.10;97.90;;;;;;5052770;28;20114;-77
2023/06/06 05:26:00;;;;;;;4.05;3.65;;;15.20;98.00;;;;;;5056295;28;20028;-78
2023/06/06 05:28:28;;;;;;;4.50;3.58;;;15.30;97.70;;;;;;5036269;28;20485;-77
2023/06/06 05:30:56;;;;;;;4.10;3.70;;;15.40;97.40;;;;;;5053810;28;20035;-77
2023/06/06 05:33:22;;;;;;;3.78;3.38;;;15.50;97.30;;;;;;5054637;28;20017;-77
2023/06/06 05:35:48;;;;;;;4.32;3.92;;;15.80;96.90;;;;;;5038483;28;20029;-78
2023/06/06 05:38:18;;;;;;;5.85;4.82;;;16.00;96.00;;;;;;5056151;28;20370;-77
2023/06/06 05:40:43;;;;;;;7.38;4.93;;;16.10;95.40;;;;;;5057719;28;20068;-77
2023/06/06 05:43:09;;;;;;;5.22;4.53;;;15.90;95.30;;;;;;5054611;28;20054;-77
2023/06/06 05:45:35;;;;;;;4.95;3.90;;;15.80;95.60;;;;;;5053987;28;20123;-77
2023/06/06 05:48:01;;;;;;;5.95;4.35;;;15.70;96.00;;;;;;5052957;28;20025;-79
2023/06/06 05:50:26;;;;;;;5.45;4.57;;;15.70;95.90;;;;;;5054712;28;20036;-78
2023/06/06 05:52:52;;;;;;;5.70;5.07;;;15.70;96.10;;;;;;5055973;28;20424;-77
2023/06/06 05:55:28;;;;;;;7.00;5.55;;;15.70;95.80;;;;;;5056891;28;20022;-77
2023/06/06 05:57:55;;;;;;;4.80;4.32;;;15.70;95.50;;;;;;5057836;28;20112;-77
2023/06/06 06:00:25;;;;;;;6.40;5.75;;;15.70;95.80;;;;;;5038315;28;20049;-77
2023/06/06 06:02:52;;;;;;;6.15;4.70;;;15.90;95.70;;;;;;5056985;28;20021;-78
2023/06/06 06:05:19;;;;;;;4.15;3.78;;;16.10;95.50;;;;;;5050145;28;20051;-78
2023/06/06 06:07:44;;;;;;;7.63;4.88;;;16.20;95.20;;;;;;5058235;28;20021;-77
2023/06/06 06:10:10;;;;;;;5.38;4.70;;;16.20;94.50;;;;;;5059008;28;20043;-76
2023/06/06 06:12:36;;;;;;;5.03;4.55;;;16.30;94.50;;;;;;5065298;28;20055;-78
2023/06/06 06:15:02;;;;;;;4.88;4.35;;;16.30;94.30;;;;;;5073392;28;20021;-77
2023/06/06 06:17:28;;;;;;;6.22;5.47;;;16.40;94.00;;;;;;5061007;28;20086;-77
2023/06/06 06:19:54;;;;;;;5.22;4.68;;;16.30;93.70;;;;;;5061586;28;20111;-75
2023/06/06 06:22:19;;;;;;;5.50;5.00;;;16.30;93.70;;;;;;5058716;28;20048;-76
2023/06/06 06:24:45;;;;;;;4.75;4.28;;;16.40;93.50;;;;;;5048518;28;20033;-77
2023/06/06 06:27:10;;;;;;;6.03;4.40;;;16.50;93.50;;;;;;5034540;28;20108;-79
2023/06/06 06:29:36;;;;;;;5.90;4.65;;;16.60;93.20;;;;;;5055627;28;20481;-78
2023/06/06 06:32:02;;;;;;;6.82;5.50;;;16.50;93.00;;;;;;5055971;28;20032;-78
2023/06/06 06:34:28;;;;;;;5.10;4.60;;;16.50;92.80;;;;;;5053268;28;20091;-77
2023/06/06 06:36:54;;;;;;;4.07;3.65;;;16.40;93.00;;;;;;5038756;28;20040;-78
2023/06/06 06:39:20;;;;;;;5.78;4.72;;;16.40;93.10;;;;;;5037904;28;20565;-77
2023/06/06 06:41:46;;;;;;;6.30;4.95;;;16.30;92.70;;;;;;5057300;28;20087;-78
2023/06/06 06:44:12;;;;;;;4.85;4.35;;;16.20;92.90;;;;;;5058941;28;20412;-78
2023/06/06 06:46:37;;;;;;;6.72;4.80;;;16.10;93.20;;;;;;5061197;28;20021;-77
2023/06/06 06:49:14;;;;;;;4.65;4.22;;;16.10;93.40;;;;;;5060325;28;20036;-79
2023/06/06 06:51:41;;;;;;;5.10;4.40;;;16.10;93.60;;;;;;5040161;28;20108;-78
2023/06/06 06:54:10;;;;;;;5.70;5.03;;;16.10;93.50;;;;;;5075879;28;20078;-78
2023/06/06 06:56:36;;;;;;;5.55;4.55;;;16.00;93.60;;;;;;5059138;28;20017;-77
2023/06/06 06:59:03;;;;;;;6.60;5.00;;;16.10;94.00;;;;;;5076126;28;20032;-76
2023/06/06 07:01:29;;;;;;;7.45;4.80;;;16.10;93.40;;;;;;5060604;28;20025;-78
2023/06/06 07:03:55;;;;;;;5.28;4.78;;;15.90;93.60;;;;;;5059075;28;20474;-76
2023/06/06 07:06:22;;;;;;;4.30;3.90;;;15.90;94.00;;;;;;5066905;28;20025;-77
2023/06/06 07:08:49;;;;;;;4.93;4.13;;;16.00;94.10;;;;;;5045487;28;20603;-79
2023/06/06 07:11:15;;;;;;;6.25;4.97;;;16.10;94.00;;;;;;5042440;28;20119;-77
2023/06/06 07:13:41;;;;;;;5.40;4.50;;;16.10;93.80;;;;;;5047948;28;20099;-77
2023/06/06 07:16:08;;;;;;;6.97;4.45;;;16.10;93.70;;;;;;5066933;28;20044;-77
2023/06/06 07:18:34;;;;;;;6.32;5.25;;;16.00;93.70;;;;;;5044589;28;20498;-77
2023/06/06 07:21:00;;;;;;;5.28;4.63;;;15.90;93.80;;;;;;5059303;28;20029;-76
2023/06/06 07:23:26;;;;;;;8.10;5.97;;;15.90;94.00;;;;;;5055510;28;20104;-77
2023/06/06 07:25:52;;;;;;;6.80;5.68;;;15.80;93.90;;;;;;5039214;28;20018;-77
2023/06/06 07:28:18;;;;;;;6.22;5.55;;;15.80;94.30;;;;;;5059502;28;20144;-77
2023/06/06 07:30:44;;;;;;;4.93;4.43;;;15.80;94.30;;;;;;5039231;28;20110;-78
2023/06/06 07:33:10;;;;;;;5.25;4.28;;;15.90;94.30;;;;;;5055735;28;20029;-77
2023/06/06 07:35:36;;;;;;;4.45;4.05;;;16.00;94.20;;;;;;5038327;28;20029;-78
2023/06/06 07:38:02;;;;;;;4.15;3.75;;;16.00;94.20;;;;;;5055886;28;20088;-77
2023/06/06 07:40:28;;;;;;;5.95;4.18;;;16.00;94.10;;;;;;5058369;28;20021;-77
2023/06/06 07:42:57;;;;;;;7.13;5.53;;;16.00;94.00;;;;;;5057554;28;20025;-77
2023/06/06 07:45:23;;;;;;;4.97;4.05;;;16.10;93.90;;;;;;5055997;28;20048;-77
2023/06/06 07:47:48;;;;;;;4.43;4.00;;;16.10;94.00;;;;;;5054672;28;20443;-76
2023/06/06 07:50:14;;;;;;;5.68;4.65;;;16.10;94.00;;;;;;5054248;28;20358;-77
2023/06/06 07:52:43;;;;;;;5.85;4.80;;;16.10;93.80;;;;;;5037669;28;20072;-77
2023/06/06 07:55:11;;;;;;;4.57;4.18;;;16.10;93.80;;;;;;5053476;28;20025;-77
2023/06/06 07:57:40;;;;;;;4.45;4.05;;;16.20;93.80;;;;;;5055339;28;20608;-78
2023/06/06 08:00:10;;;;;;;4.50;4.10;;;16.30;93.60;;;;;;5060370;28;20083;-78
2023/06/06 08:02:37;;;;;;;4.20;3.75;;;16.30;93.40;;;;;;5060587;28;20068;-77
2023/06/06 08:05:04;;;;;;;5.15;4.20;;;16.20;93.40;;;;;;5057172;28;20017;-76
2023/06/06 08:07:30;;;;;;;4.45;3.70;;;16.30;93.40;;;;;;5057488;28;20017;-77
2023/06/06 08:09:55;;;;;;;3.72;3.35;;;16.30;93.40;;;;;;5056241;28;20071;-77
2023/06/06 08:12:21;;;;;;;5.15;3.60;;;16.30;93.40;;;;;;5055730;28;20478;-78
2023/06/06 08:14:46;;;;;;;3.92;3.53;;;16.40;93.10;;;;;;5055934;28;20125;-77
2023/06/06 08:17:12;;;;;;;3.42;3.13;;;16.40;92.90;;;;;;5059557;28;20017;-79
2023/06/06 08:19:38;;;;;;;3.50;3.20;;;16.40;92.90;;;;;;5046683;28;20470;-79
2023/06/06 08:22:06;;;;;;;4.15;3.60;;;16.40;92.90;;;;;;5061081;28;20017;-78
2023/06/06 08:24:31;;;;;;;3.03;2.83;;;16.50;92.70;;;;;;5062779;28;20654;-80
2023/06/06 08:26:57;;;;;;;2.67;2.47;;;16.50;92.80;;;;;;5062652;28;20033;-77
2023/06/06 08:29:26;;;;;;;2.70;2.50;;;16.60;92.60;;;;;;5046894;28;20080;-79
2023/06/06 08:31:53;;;;;;;3.15;2.90;;;16.80;92.40;;;;;;5059801;28;20029;-77
2023/06/06 08:34:20;;;;;;;2.53;2.33;;;16.80;92.00;;;;;;5040948;28;20030;-80
2023/06/06 08:36:46;;;;;;;2.72;2.50;;;16.90;91.80;;;;;;5043782;28;20236;-80
2023/06/06 08:39:12;;;;;;;2.85;2.63;;;17.00;91.40;;;;;;5044022;28;20033;-78
2023/06/06 08:41:41;;;;;;;2.83;2.55;;;17.10;91.30;;;;;;5062987;28;20110;-78
2023/06/06 08:44:08;;;;;;;3.35;3.00;;;17.10;90.90;;;;;;5061906;28;20473;-80
2023/06/06 08:46:33;;;;;;;2.55;2.33;;;17.20;90.90;;;;;;5045180;28;20051;-79
2023/06/06 08:49:04;;;;;;;2.60;2.40;;;17.30;90.80;;;;;;5064458;28;20108;-79
2023/06/06 08:51:35;;;;;;;2.17;2.08;;;17.40;90.50;;;;;;5061790;28;20044;-81
2023/06/06 08:54:02;;;;;;;2.95;2.42;;;17.60;90.20;;;;;;5060605;28;20037;-77
2023/06/06 08:56:27;;;;;;;1.90;1.80;;;17.80;89.50;;;;;;5046621;28;20037;-76
2023/06/06 08:58:53;;;;;;;2.92;2.63;;;18.10;89.00;;;;;;5035223;28;20056;-77
2023/06/06 09:01:22;;;;;;;2.10;2.00;;;18.40;87.00;;;;;;5037483;28;20029;-78
2023/06/06 09:03:53;;;;;;;2.13;2.03;;;18.60;86.40;;;;;;5021353;28;20029;-76
2023/06/06 09:06:20;;;;;;;1.90;1.80;;;18.60;85.40;;;;;;5049068;28;20034;-77
2023/06/06 09:08:52;;;;;;;3.17;2.20;;;18.50;85.10;;;;;;5039127;28;20052;-78
2023/06/06 09:11:18;;;;;;;2.08;1.88;;;18.40;85.10;;;;;;5058718;28;20021;-77
2023/06/06 09:13:45;;;;;;;2.50;2.30;;;18.30;84.90;;;;;;5060425;28;20029;-78
2023/06/06 09:16:12;;;;;;;3.67;2.63;;;18.30;84.30;;;;;;5057632;28;20028;-77
2023/06/06 09:18:41;;;;;;;3.33;2.50;;;18.20;84.90;;;;;;5056715;28;20144;-78
2023/06/06 09:21:07;;;;;;;2.25;1.70;;;18.10;85.00;;;;;;5045185;28;20035;-76
2023/06/06 09:23:42;;;;;;;1.98;1.85;;;18.20;86.10;;;;;;5064204;28;20031;-75
2023/06/06 09:26:19;;;;;;;1.60;1.50;;;18.30;84.90;;;;;;5068113;28;20100;-76
2023/06/06 09:28:45;;;;;;;1.77;1.60;;;18.50;85.00;;;;;;5066155;28;20035;-77
2023/06/06 09:31:30;;;;;;;1.77;1.40;;;18.90;84.00;;;;;;5048798;28;20057;-76
2023/06/06 09:34:00;;;;;;;2.15;1.60;;;19.40;82.00;;;;;;5074234;28;20088;-77
2023/06/06 09:36:28;;;;;;;1.33;1.33;;;19.60;80.10;;;;;;5074588;28;20040;-77
2023/06/06 09:39:14;;;;;;;1.50;1.40;;;19.90;78.90;;;;;;5050433;28;20044;-77
2023/06/06 09:41:40;;;;;;;1.50;1.40;;;;;;;;;;5069452;28;20097;-77
2023/06/06 09:44:20;;;;;;;1.30;1.20;;;20.50;75.60;;;;;;5071471;28;20044;-77
2023/06/06 09:46:48;;;;;;;1.58;1.48;;;20.70;74.80;;;;;;5046819;28;20430;-76
2023/06/06 09:49:14;;;;;;;1.55;1.30;;;20.60;72.80;;;;;;5043982;28;20144;-79
2023/06/06 09:51:41;;;;;;;1.70;1.17;;;20.60;72.20;;;;;;5052736;28;20029;-77
2023/06/06 09:54:11;;;;;;;1.08;1.08;;;20.70;72.20;;;;;;5061756;28;20160;-77
2023/06/06 09:56:39;;;;;;;1.75;1.25;;;21.20;71.60;;;;;;5062361;28;20085;-77
2023/06/06 09:59:05;;;;;;;1.35;1.25;;;21.40;69.80;;;;;;5054870;28;20024;-76
2023/06/06 10:01:33;;;;;;;1.30;1.23;;;21.20;69.80;;;;;;5039433;28;20033;-76
2023/06/06 10:04:00;;;;;;;1.20;1.17;;;21.10;70.70;;;;;;5060612;28;20048;-77
2023/06/06 10:06:26;;;;;;;1.52;1.45;;;21.40;70.20;;;;;;5043007;28;20025;-75
2023/06/06 10:08:53;;;;;;;1.38;1.27;;;21.60;68.40;;;;;;5060608;28;20029;-76
2023/06/06 10:11:21;;;;;;;2.22;1.40;;;21.70;68.30;;;;;;5059624;28;20112;-77
2023/06/06 10:13:49;;;;;;;1.98;1.58;;;22.10;67.40;;;;;;5043435;28;20052;-77
2023/06/06 10:16:16;;;;;;;1.10;1.10;;;22.10;65.90;;;;;;5059136;28;20033;-77
2023/06/06 10:18:46;;;;;;;1.70;1.60;;;21.90;66.80;;;;;;5058599;28;20431;-76
2023/06/06 10:21:14;;;;;;;3.78;3.00;;;21.90;66.80;;;;;;5059554;28;20096;-78
2023/06/06 10:23:40;;;;;;;3.80;2.30;;;22.10;66.30;;;;;;5042950;28;20021;-78
2023/06/06 10:26:11;;;;;;;2.70;2.28;;;22.30;64.30;;;;;;5041896;28;20040;-77
2023/06/06 10:28:44;;;;;;;2.50;2.08;;;22.20;64.80;;;;;;5069355;28;20045;-75
2023/06/06 10:31:19;;;;;;;3.63;2.00;;;22.20;63.40;;;;;;5068689;28;20017;-77
2023/06/06 10:33:47;;;;;;;2.80;1.70;;;22.20;63.20;;;;;;5059212;28;20025;-77
2023/06/06 10:36:17;;;;;;;2.15;1.95;;;22.10;63.80;;;;;;5057125;28;20025;-79
2023/06/06 10:39:16;;;;;;;1.77;1.65;;;;;;;;;;5046361;28;20025;-77
2023/06/06 10:41:47;;;;;;;1.95;1.52;;;22.00;63.10;;;;;;5066845;28;20052;-78
2023/06/06 10:44:13;;;;;;;1.50;1.25;;;21.80;64.90;;;;;;5044447;28;20482;-78
2023/06/06 10:46:40;;;;;;;2.15;1.95;;;21.70;65.70;;;;;;5043835;28;20068;-78
2023/06/06 10:49:07;;;;;;;2.55;1.25;;;21.90;64.10;;;;;;5057642;28;20029;-78
2023/06/06 10:51:39;;;;;;;1.45;1.45;;;22.00;64.20;;;;;;5058558;28;20474;-78
2023/06/06 10:54:21;;;;;;;2.08;1.85;;;22.20;64.20;;;;;;5039901;28;20029;-78
2023/06/06 10:56:55;;;;;;;1.63;1.52;;;22.30;62.70;;;;;;5048416;28;20354;-79
2023/06/06 10:59:34;;;;;;;2.00;1.80;;;22.60;62.60;;;;;;5071343;28;20037;-78
2023/06/06 11:02:00;;;;;;;3.75;1.70;;;22.40;61.90;;;;;;5067128;28;20021;-78
2023/06/06 11:04:27;;;;;;;1.23;1.20;;;22.20;62.50;;;;;;5068601;28;20032;-79
2023/06/06 11:07:19;;;;;;;1.50;1.40;;;22.40;62.20;;;;;;5049969;28;20024;-78
2023/06/06 11:09:48;;;;;;;3.10;1.30;;;22.90;61.40;;;;;;5053196;28;20085;-79
2023/06/06 11:12:14;;;;;;;6.03;2.00;;;23.70;59.90;;;;;;5069356;28;20028;-79
2023/06/06 11:15:07;;;;;;;1.83;1.52;;;24.00;57.30;;;;;;5066162;28;20084;-78
2023/06/06 11:17:43;;;;;;;4.65;2.03;;;23.60;57.00;;;;;;5067301;28;20035;-78
2023/06/06 11:20:18;;;;;;;2.30;2.10;;;23.20;56.70;;;;;;5063692;28;20029;-78
2023/06/06 11:23:03;;;;;;;4.20;2.03;;;22.70;57.60;;;;;;5064214;28;20017;-78
2023/06/06 11:25:30;;;;;;;2.88;1.88;;;22.80;58.00;;;;;;5043456;28;20021;-78
2023/06/06 11:28:58;;;;;;;2.00;1.80;;;22.80;57.90;;;;;;5044451;28;20021;-78
2023/06/06 11:31:19;;;;;;;2.63;2.20;;;22.90;58.00;;;;;;5052133;28;20108;-78
2023/06/06 11:33:45;;;;;;;5.00;2.22;;;23.30;56.90;;;;;;5042552;28;20043;-78
2023/06/06 11:36:12;;;;;;;3.03;2.33;;;;;;;;;;5043528;28;20025;-79
2023/06/06 11:38:41;;;;;;;2.10;2.00;;;23.60;55.80;;;;;;5060186;28;20339;-79
2023/06/06 11:44:33;;;;;;;2.60;2.22;;;24.20;54.60;;;;;;5049051;28;20108;-79
2023/06/06 11:47:02;;;;;;;1.98;1.88;;;24.10;54.40;;;;;;5044530;28;20041;-79
2023/06/06 11:49:28;;;;;;;3.20;2.58;;;24.00;55.50;;;;;;5040811;28;20124;-80
2023/06/06 11:52:09;;;;;;;2.50;2.30;;;24.20;54.60;;;;;;5054911;28;20021;-80
2023/06/06 11:54:36;;;;;;;;;;;24.40;55.20;;;;;;5058478;28;20033;-79
2023/06/06 11:57:07;;;;;;;3.10;2.28;;;24.30;54.90;;;;;;5073653;28;19980;-79
2023/06/06 11:59:37;;;;;;;2.13;1.95;;;23.80;55.40;;;;;;5044421;28;20036;-79
2023/06/06 12:02:03;;;;;;;2.80;2.40;;;23.20;56.90;;;;;;5061459;28;20029;-80
2023/06/06 12:04:29;;;;;;;2.33;2.13;;;23.10;57.90;;;;;;5043510;28;20053;-79
2023/06/06 12:07:07;;;;;;;3.53;2.22;;;23.20;57.70;;;;;;5062868;28;20033;-80
2023/06/06 12:09:32;;;;;;;2.88;2.22;;;23.50;57.20;;;;;;5045456;28;20028;-79
2023/06/06 12:12:04;;;;;;;2.15;1.92;;;23.90;56.70;;;;;;5061467;28;20045;-78
2023/06/06 12:14:34;;;;;;;2.58;2.38;;;24.50;54.90;;;;;;5058576;28;20025;-78
2023/06/06 12:17:08;;;;;;;3.83;2.28;;;24.80;53.10;;;;;;5060367;28;20036;-78
2023/06/06 12:19:55;;;;;;;2.33;2.10;;;24.70;53.70;;;;;;5062684;28;20025;-78
2023/06/06 12:22:36;;;;;;;2.47;2.25;;;24.50;53.60;;;;;;5062320;28;20013;-79
2023/06/06 12:25:04;;;;;;;2.63;2.42;;;24.10;54.10;;;;;;5067712;28;20018;-81
2023/06/06 12:27:36;;;;;;;3.50;2.38;;;23.50;54.70;;;;;;5073118;28;20017;-79
2023/06/06 12:30:02;;;;;;;1.80;1.70;;;23.60;55.00;;;;;;5058739;28;20078;-78
2023/06/06 12:32:30;;;;;;;4.85;2.38;;;23.80;54.80;;;;;;5057200;28;20123;-79
2023/06/06 12:35:05;;;;;;;2.30;2.10;;;23.70;52.60;;;;;;5058960;28;20084;-78
2023/06/06 12:37:37;;;;;;;2.40;1.90;;;;;;;;;;5061441;28;20070;-80
2023/06/06 12:40:12;;;;;;;3.70;2.05;;;23.10;54.00;;;;;;5059571;28;20478;-79
2023/06/06 12:42:38;;;;;;;2.17;1.98;;;23.30;55.30;;;;;;5061469;28;20021;-79
2023/06/06 12:45:05;;;;;;;1.75;1.65;;;24.10;54.00;;;;;;5061449;28;20021;-79
2023/06/06 12:47:32;;;;;;;2.28;2.08;;;24.90;52.10;;;;;;5046250;28;20028;-80
2023/06/06 12:49:58;;;;;;;2.58;2.00;;;25.10;50.50;;;;;;5042644;28;20410;-78
2023/06/06 12:52:24;;;;;;;2.80;2.60;;;24.90;50.70;;;;;;5058888;28;20033;-80
2023/06/06 12:54:50;;;;;;;6.15;2.53;;;24.80;50.80;;;;;;5060643;28;20028;-78
2023/06/06 12:57:16;;;;;;;2.55;2.13;;;;;;;;;;5042985;28;20456;-79